Canal Fulton, Ohio
Current Conditions -  °F | °C
As of 11:51 PM on Saturday 25 Oct 2014 (Local Time) from KCAK Reporting Station
Clear Clear  
Wind Chill: 56°   Ceiling: Unl
Heat Index: 56°   Visibility: 10mi
Dew Point: 30°   Wind: 13mph
Humidity: 37%   Direction: 300°WNW
Pressure: 29.82"   Gusts: 23mph
Location:  40.89°N, 81.6°W
Report Text: KCAK 260351Z 30011G20KT 10SM CLR 13/M01 A2982 RMK AO2 SLP095 T01331011
Loading
Personal Weather Stations






























Interactive Weather Map
Tropical Storm Tracking
New forecast layout! Learn more

10-Day Weather Forecast

Advertisements
Track Severe Weather on mobile